sensor_id;sensor_type;location;lat;lon;timestamp;pressure;altitude;pressure_sealevel;temperature;humidity
47761;BME280;33524;55.434;38.520;2023-03-05T00:00:54;97442.00;;;-1.83;82.61
47761;BME280;33524;55.434;38.520;2023-03-05T00:03:27;97438.41;;;-1.93;82.73
47761;BME280;33524;55.434;38.520;2023-03-05T00:05:57;97442.94;;;-1.84;84.00
47761;BME280;33524;55.434;38.520;2023-03-05T00:08:28;97434.38;;;-1.71;83.93
47761;BME280;33524;55.434;38.520;2023-03-05T00:10:59;97436.84;;;-1.83;84.51
47761;BME280;33524;55.434;38.520;2023-03-05T00:13:41;97442.56;;;-2.03;86.00
47761;BME280;33524;55.434;38.520;2023-03-05T00:16:45;97436.81;;;-2.07;86.30
47761;BME280;33524;55.434;38.520;2023-03-05T00:19:23;97441.41;;;-1.99;86.41
47761;BME280;33524;55.434;38.520;2023-03-05T00:21:53;97440.28;;;-2.08;86.79
47761;BME280;33524;55.434;38.520;2023-03-05T00:24:24;97440.50;;;-1.98;86.49
47761;BME280;33524;55.434;38.520;2023-03-05T00:26:53;97443.88;;;-1.97;85.62
47761;BME280;33524;55.434;38.520;2023-03-05T00:29:24;97437.50;;;-2.17;85.71
47761;BME280;33524;55.434;38.520;2023-03-05T00:31:58;97438.94;;;-2.13;86.04
47761;BME280;33524;55.434;38.520;2023-03-05T00:34:28;97446.88;;;-2.04;85.21
47761;BME280;33524;55.434;38.520;2023-03-05T00:36:59;97444.94;;;-2.00;84.60
47761;BME280;33524;55.434;38.520;2023-03-05T00:39:29;97442.25;;;-2.11;84.57
47761;BME280;33524;55.434;38.520;2023-03-05T00:41:58;97441.66;;;-2.15;84.58
47761;BME280;33524;55.434;38.520;2023-03-05T00:44:28;97439.19;;;-2.16;83.68
47761;BME280;33524;55.434;38.520;2023-03-05T00:46:58;97449.06;;;-2.10;84.03
47761;BME280;33524;55.434;38.520;2023-03-05T00:49:28;97438.44;;;-2.06;84.34
47761;BME280;33524;55.434;38.520;2023-03-05T00:52:30;97440.19;;;-1.93;84.39
47761;BME280;33524;55.434;38.520;2023-03-05T00:59:44;97420.03;;;-2.12;85.11
47761;BME280;33524;55.434;38.520;2023-03-05T01:02:35;97438.13;;;-2.01;85.57
47761;BME280;33524;55.434;38.520;2023-03-05T01:05:46;97440.91;;;-1.91;85.37
47761;BME280;33524;55.434;38.520;2023-03-05T01:09:04;97441.03;;;-2.18;86.70
47761;BME280;33524;55.434;38.520;2023-03-05T01:12:17;97439.47;;;-2.08;87.09
47761;BME280;33524;55.434;38.520;2023-03-05T01:14:53;97437.12;;;-2.24;87.11
47761;BME280;33524;55.434;38.520;2023-03-05T01:17:49;97432.59;;;-2.20;87.06
47761;BME280;33524;55.434;38.520;2023-03-05T01:21:46;97441.63;;;-2.02;86.79
47761;BME280;33524;55.434;38.520;2023-03-05T01:24:16;97443.28;;;-2.14;86.90
47761;BME280;33524;55.434;38.520;2023-03-05T01:26:46;97438.34;;;-2.42;87.29
47761;BME280;33524;55.434;38.520;2023-03-05T01:29:15;97439.06;;;-2.28;86.66
47761;BME280;33524;55.434;38.520;2023-03-05T01:31:45;97437.50;;;-2.17;87.16
47761;BME280;33524;55.434;38.520;2023-03-05T01:34:16;97432.97;;;-2.01;87.26
47761;BME280;33524;55.434;38.520;2023-03-05T01:36:46;97433.50;;;-2.21;86.47
47761;BME280;33524;55.434;38.520;2023-03-05T01:39:18;97434.63;;;-2.26;86.89
47761;BME280;33524;55.434;38.520;2023-03-05T01:41:48;97436.38;;;-2.13;86.53
47761;BME280;33524;55.434;38.520;2023-03-05T01:44:33;97432.91;;;-2.25;86.31
47761;BME280;33524;55.434;38.520;2023-03-05T01:47:03;97430.03;;;-2.33;86.86
47761;BME280;33524;55.434;38.520;2023-03-05T01:49:36;97437.72;;;-2.46;87.03
47761;BME280;33524;55.434;38.520;2023-03-05T01:52:16;97440.00;;;-2.41;87.46
47761;BME280;33524;55.434;38.520;2023-03-05T01:54:51;97445.13;;;-2.54;87.58
47761;BME280;33524;55.434;38.520;2023-03-05T01:57:44;97438.25;;;-2.54;87.58
47761;BME280;33524;55.434;38.520;2023-03-05T02:00:18;97433.09;;;-2.67;87.72
47761;BME280;33524;55.434;38.520;2023-03-05T02:02:49;97435.78;;;-2.42;88.69
47761;BME280;33524;55.434;38.520;2023-03-05T02:05:26;97434.25;;;-2.58;87.60
47761;BME280;33524;55.434;38.520;2023-03-05T02:07:59;97432.37;;;-2.69;88.46
47761;BME280;33524;55.434;38.520;2023-03-05T02:10:35;97435.16;;;-2.46;87.68
47761;BME280;33524;55.434;38.520;2023-03-05T02:13:09;97433.28;;;-2.70;88.13
47761;BME280;33524;55.434;38.520;2023-03-05T02:15:43;97434.75;;;-2.66;88.36
47761;BME280;33524;55.434;38.520;2023-03-05T02:18:16;97436.09;;;-2.47;88.60
47761;BME280;33524;55.434;38.520;2023-03-05T02:20:52;97438.97;;;-2.65;87.86
47761;BME280;33524;55.434;38.520;2023-03-05T02:23:27;97430.72;;;-2.57;87.98
47761;BME280;33524;55.434;38.520;2023-03-05T02:25:58;97436.28;;;-2.76;88.00
47761;BME280;33524;55.434;38.520;2023-03-05T02:28:35;97436.81;;;-2.45;87.62
47761;BME280;33524;55.434;38.520;2023-03-05T02:31:10;97431.97;;;-2.62;87.64
47761;BME280;33524;55.434;38.520;2023-03-05T02:33:41;97432.06;;;-2.77;87.39
47761;BME280;33524;55.434;38.520;2023-03-05T02:36:12;97436.03;;;-2.86;87.27
47761;BME280;33524;55.434;38.520;2023-03-05T02:38:43;97424.31;;;-2.90;87.71
47761;BME280;33524;55.434;38.520;2023-03-05T02:41:15;97428.44;;;-2.87;87.51
47761;BME280;33524;55.434;38.520;2023-03-05T02:43:44;97439.91;;;-3.06;88.03
47761;BME280;33524;55.434;38.520;2023-03-05T02:46:14;97435.84;;;-2.82;87.14
47761;BME280;33524;55.434;38.520;2023-03-05T02:48:44;97441.03;;;-3.10;87.33
47761;BME280;33524;55.434;38.520;2023-03-05T02:51:14;97444.84;;;-3.02;87.25
47761;BME280;33524;55.434;38.520;2023-03-05T02:53:45;97440.06;;;-3.21;86.83
47761;BME280;33524;55.434;38.520;2023-03-05T02:56:15;97444.44;;;-3.09;87.31
47761;BME280;33524;55.434;38.520;2023-03-05T02:58:45;97441.81;;;-3.22;86.77
47761;BME280;33524;55.434;38.520;2023-03-05T03:01:15;97446.59;;;-3.43;87.48
47761;BME280;33524;55.434;38.520;2023-03-05T03:03:44;97451.59;;;-3.41;87.45
47761;BME280;33524;55.434;38.520;2023-03-05T03:06:13;97441.75;;;-3.62;87.39
47761;BME280;33524;55.434;38.520;2023-03-05T03:08:43;97441.94;;;-3.65;87.82
47761;BME280;33524;55.434;38.520;2023-03-05T03:11:13;97443.03;;;-3.55;88.62
47761;BME280;33524;55.434;38.520;2023-03-05T03:13:43;97446.19;;;-3.78;87.59
47761;BME280;33524;55.434;38.520;2023-03-05T03:16:13;97452.78;;;-3.74;87.93
47761;BME280;33524;55.434;38.520;2023-03-05T03:18:43;97455.72;;;-3.80;87.80
47761;BME280;33524;55.434;38.520;2023-03-05T03:21:18;97446.59;;;-3.43;88.15
47761;BME280;33524;55.434;38.520;2023-03-05T03:23:49;97446.63;;;-3.30;87.30
47761;BME280;33524;55.434;38.520;2023-03-05T03:26:19;97450.06;;;-3.44;86.24
47761;BME280;33524;55.434;38.520;2023-03-05T03:28:49;97446.75;;;-3.19;86.04
47761;BME280;33524;55.434;38.520;2023-03-05T03:31:19;97447.16;;;-3.25;85.34
47761;BME280;33524;55.434;38.520;2023-03-05T03:33:49;97454.31;;;-3.03;85.51
47761;BME280;33524;55.434;38.520;2023-03-05T03:36:19;97450.59;;;-3.39;84.92
47761;BME280;33524;55.434;38.520;2023-03-05T03:38:48;97442.69;;;-3.36;84.73
47761;BME280;33524;55.434;38.520;2023-03-05T03:41:18;97448.75;;;-3.37;84.63
47761;BME280;33524;55.434;38.520;2023-03-05T03:43:48;97447.75;;;-3.34;84.41
47761;BME280;33524;55.434;38.520;2023-03-05T03:46:17;97450.53;;;-3.25;84.77
47761;BME280;33524;55.434;38.520;2023-03-05T03:48:49;97451.88;;;-2.92;85.56
47761;BME280;33524;55.434;38.520;2023-03-05T03:51:20;97449.72;;;-3.25;84.58
47761;BME280;33524;55.434;38.520;2023-03-05T03:53:49;97439.81;;;-3.31;84.35
47761;BME280;33524;55.434;38.520;2023-03-05T03:56:18;97448.09;;;-3.26;84.42
47761;BME280;33524;55.434;38.520;2023-03-05T03:58:51;97447.09;;;-3.38;83.93
47761;BME280;33524;55.434;38.520;2023-03-05T04:01:21;97447.06;;;-3.23;84.26
47761;BME280;33524;55.434;38.520;2023-03-05T04:03:51;97450.44;;;-3.23;84.50
47761;BME280;33524;55.434;38.520;2023-03-05T04:06:20;97438.91;;;-3.30;83.80
47761;BME280;33524;55.434;38.520;2023-03-05T04:08:49;97441.44;;;-3.16;83.97
47761;BME280;33524;55.434;38.520;2023-03-05T04:11:19;97447.44;;;-3.02;84.61
47761;BME280;33524;55.434;38.520;2023-03-05T04:13:49;97444.16;;;-3.32;84.85
47761;BME280;33524;55.434;38.520;2023-03-05T04:16:20;97446.59;;;-3.43;84.77
47761;BME280;33524;55.434;38.520;2023-03-05T04:18:50;97451.91;;;-3.46;84.65
47761;BME280;33524;55.434;38.520;2023-03-05T04:21:20;97452.19;;;-3.23;85.08
47761;BME280;33524;55.434;38.520;2023-03-05T04:23:50;97446.72;;;-3.32;84.71
47761;BME280;33524;55.434;38.520;2023-03-05T04:26:19;97459.75;;;-3.08;84.81
47761;BME280;33524;55.434;38.520;2023-03-05T04:28:49;97452.19;;;-3.23;84.10
47761;BME280;33524;55.434;38.520;2023-03-05T04:31:19;97454.50;;;-3.06;84.02
47761;BME280;33524;55.434;38.520;2023-03-05T04:33:49;97463.91;;;-2.92;84.17
47761;BME280;33524;55.434;38.520;2023-03-05T04:36:20;97456.41;;;-2.95;83.66
47761;BME280;33524;55.434;38.520;2023-03-05T04:38:49;97457.66;;;-2.88;83.37
47761;BME280;33524;55.434;38.520;2023-03-05T04:41:19;97461.81;;;-3.00;83.87
47761;BME280;33524;55.434;38.520;2023-03-05T04:43:48;97457.06;;;-3.06;84.37
47761;BME280;33524;55.434;38.520;2023-03-05T04:46:18;97454.75;;;-2.96;83.98
47761;BME280;33524;55.434;38.520;2023-03-05T04:48:48;97455.22;;;-2.77;83.79
47761;BME280;33524;55.434;38.520;2023-03-05T04:51:17;97456.03;;;-2.64;83.76
47761;BME280;33524;55.434;38.520;2023-03-05T04:53:48;97450.28;;;-2.54;83.74
47761;BME280;33524;55.434;38.520;2023-03-05T04:56:17;97452.53;;;-2.75;83.32
47761;BME280;33524;55.434;38.520;2023-03-05T04:58:47;97455.81;;;-2.60;83.26
47761;BME280;33524;55.434;38.520;2023-03-05T05:01:17;97461.00;;;-2.48;82.90
47761;BME280;33524;55.434;38.520;2023-03-05T05:03:47;97466.72;;;-2.70;82.50
47761;BME280;33524;55.434;38.520;2023-03-05T05:06:17;97462.72;;;-2.48;82.35
47761;BME280;33524;55.434;38.520;2023-03-05T05:08:46;97470.25;;;-2.58;82.39
47761;BME280;33524;55.434;38.520;2023-03-05T05:11:19;97464.50;;;-2.36;82.37
47761;BME280;33524;55.434;38.520;2023-03-05T05:13:48;97469.44;;;-2.46;83.01
47761;BME280;33524;55.434;38.520;2023-03-05T05:16:21;97464.09;;;-2.30;81.55
47761;BME280;33524;55.434;38.520;2023-03-05T05:18:50;97473.34;;;-2.40;81.43
47761;BME280;33524;55.434;38.520;2023-03-05T05:21:21;97472.50;;;-2.79;81.51
47761;BME280;33524;55.434;38.520;2023-03-05T05:23:50;97467.19;;;-2.37;81.65
47761;BME280;33524;55.434;38.520;2023-03-05T05:26:21;97464.31;;;-2.33;80.58
47761;BME280;33524;55.434;38.520;2023-03-05T05:28:50;97460.41;;;-2.13;80.47
47761;BME280;33524;55.434;38.520;2023-03-05T05:31:20;97456.69;;;-2.34;80.65
47761;BME280;33524;55.434;38.520;2023-03-05T05:33:50;97463.69;;;-1.98;80.05
47761;BME280;33524;55.434;38.520;2023-03-05T05:36:20;97457.50;;;-2.08;79.08
47761;BME280;33524;55.434;38.520;2023-03-05T05:38:50;97469.75;;;-2.25;80.32
47761;BME280;33524;55.434;38.520;2023-03-05T05:41:19;97467.78;;;-2.34;80.43
47761;BME280;33524;55.434;38.520;2023-03-05T05:43:49;97471.19;;;-1.95;79.32
47761;BME280;33524;55.434;38.520;2023-03-05T05:46:20;97471.37;;;-1.85;78.45
47761;BME280;33524;55.434;38.520;2023-03-05T05:48:51;97459.66;;;-2.02;78.96
47761;BME280;33524;55.434;38.520;2023-03-05T05:51:22;97466.75;;;-1.93;78.62
47761;BME280;33524;55.434;38.520;2023-03-05T05:53:52;97469.84;;;-1.88;78.56
47761;BME280;33524;55.434;38.520;2023-03-05T05:56:22;97474.16;;;-1.88;78.82
47761;BME280;33524;55.434;38.520;2023-03-05T05:58:52;97469.72;;;-1.73;78.81
47761;BME280;33524;55.434;38.520;2023-03-05T06:01:25;97474.22;;;-1.64;78.00
47761;BME280;33524;55.434;38.520;2023-03-05T06:03:56;97478.37;;;-1.74;77.11
47761;BME280;33524;55.434;38.520;2023-03-05T06:06:26;97474.44;;;-1.67;78.63
47761;BME280;33524;55.434;38.520;2023-03-05T06:08:56;97476.59;;;-1.61;77.16
47761;BME280;33524;55.434;38.520;2023-03-05T06:11:25;97478.59;;;-1.77;77.92
47761;BME280;33524;55.434;38.520;2023-03-05T06:13:55;97471.22;;;-1.58;77.35
47761;BME280;33524;55.434;38.520;2023-03-05T06:16:24;97473.56;;;-1.92;77.13
47761;BME280;33524;55.434;38.520;2023-03-05T06:18:54;97471.75;;;-1.66;77.78
47761;BME280;33524;55.434;38.520;2023-03-05T06:21:23;97468.53;;;-1.56;76.30
47761;BME280;33524;55.434;38.520;2023-03-05T06:23:53;97472.34;;;-1.25;76.60
47761;BME280;33524;55.434;38.520;2023-03-05T06:26:23;97473.31;;;-1.63;76.01
47761;BME280;33524;55.434;38.520;2023-03-05T06:28:53;97476.75;;;-2.01;77.42
47761;BME280;33524;55.434;38.520;2023-03-05T06:31:24;97473.88;;;-1.47;76.79
47761;BME280;33524;55.434;38.520;2023-03-05T06:34:11;97474.06;;;-1.13;75.38
47761;BME280;33524;55.434;38.520;2023-03-05T06:36:41;97479.22;;;-1.13;74.83
47761;BME280;33524;55.434;38.520;2023-03-05T06:39:12;97477.00;;;-1.30;75.64
47761;BME280;33524;55.434;38.520;2023-03-05T06:41:45;97474.50;;;-1.19;75.16
47761;BME280;33524;55.434;38.520;2023-03-05T06:44:17;97482.69;;;-1.01;74.50
47761;BME280;33524;55.434;38.520;2023-03-05T06:46:49;97481.91;;;-0.90;73.60
47761;BME280;33524;55.434;38.520;2023-03-05T06:49:26;97481.38;;;-1.07;74.10
47761;BME280;33524;55.434;38.520;2023-03-05T06:52:16;97483.53;;;-0.89;73.70
47761;BME280;33524;55.434;38.520;2023-03-05T06:54:46;97479.38;;;-0.79;72.93
47761;BME280;33524;55.434;38.520;2023-03-05T06:57:16;97482.28;;;-1.32;73.52
47761;BME280;33524;55.434;38.520;2023-03-05T06:59:49;97491.84;;;-1.21;73.42
47761;BME280;33524;55.434;38.520;2023-03-05T07:02:22;97495.00;;;-0.93;73.38
47761;BME280;33524;55.434;38.520;2023-03-05T07:04:52;97495.22;;;-1.20;72.55
47761;BME280;33524;55.434;38.520;2023-03-05T07:07:24;97496.16;;;-0.97;74.32
47761;BME280;33524;55.434;38.520;2023-03-05T07:09:56;97491.56;;;-0.81;73.17
47761;BME280;33524;55.434;38.520;2023-03-05T07:12:30;97497.38;;;-1.51;73.58
47761;BME280;33524;55.434;38.520;2023-03-05T07:15:06;97509.50;;;-1.28;73.95
47761;BME280;33524;55.434;38.520;2023-03-05T07:17:39;97506.72;;;-1.00;73.55
47761;BME280;33524;55.434;38.520;2023-03-05T07:20:10;97506.72;;;-1.00;73.44
47761;BME280;33524;55.434;38.520;2023-03-05T07:22:39;97506.22;;;-1.06;73.02
47761;BME280;33524;55.434;38.520;2023-03-05T07:25:11;97513.78;;;-0.91;73.32
47761;BME280;33524;55.434;38.520;2023-03-05T07:27:44;97511.31;;;-1.17;72.24
47761;BME280;33524;55.434;38.520;2023-03-05T07:30:16;97510.56;;;-1.06;73.15
47761;BME280;33524;55.434;38.520;2023-03-05T07:32:45;97525.13;;;-1.18;71.57
47761;BME280;33524;55.434;38.520;2023-03-05T07:35:18;97524.59;;;-1.47;72.78
47761;BME280;33524;55.434;38.520;2023-03-05T07:37:56;97520.12;;;-1.69;73.14
47761;BME280;33524;55.434;38.520;2023-03-05T07:40:26;97529.94;;;-1.37;73.37
47761;BME280;33524;55.434;38.520;2023-03-05T07:42:56;97533.72;;;-1.67;72.79
47761;BME280;33524;55.434;38.520;2023-03-05T07:45:29;97538.69;;;-1.90;73.45
47761;BME280;33524;55.434;38.520;2023-03-05T07:48:00;97531.56;;;-1.99;73.69
47761;BME280;33524;55.434;38.520;2023-03-05T07:50:31;97532.47;;;-1.62;73.46
47761;BME280;33524;55.434;38.520;2023-03-05T07:53:01;97541.50;;;-1.43;74.03
47761;BME280;33524;55.434;38.520;2023-03-05T07:55:31;97537.97;;;-1.29;72.46
47761;BME280;33524;55.434;38.520;2023-03-05T07:58:04;97535.78;;;-1.85;73.39
47761;BME280;33524;55.434;38.520;2023-03-05T08:00:34;97542.59;;;-1.71;73.36
47761;BME280;33524;55.434;38.520;2023-03-05T08:03:04;97550.72;;;-1.77;73.87
47761;BME280;33524;55.434;38.520;2023-03-05T08:05:34;97549.34;;;-1.45;72.86
47761;BME280;33524;55.434;38.520;2023-03-05T08:08:05;97551.03;;;-1.69;73.48
47761;BME280;33524;55.434;38.520;2023-03-05T08:10:35;97558.31;;;-1.37;72.69
47761;BME280;33524;55.434;38.520;2023-03-05T08:13:05;97560.94;;;-1.13;72.61
47761;BME280;33524;55.434;38.520;2023-03-05T08:15:36;97557.75;;;-1.17;71.26
47761;BME280;33524;55.434;38.520;2023-03-05T08:18:07;97561.59;;;-1.35;72.43
47761;BME280;33524;55.434;38.520;2023-03-05T08:20:36;97573.28;;;-1.06;72.44
47761;BME280;33524;55.434;38.520;2023-03-05T08:23:05;97560.31;;;-0.80;71.09
47761;BME280;33524;55.434;38.520;2023-03-05T08:25:36;97558.47;;;-1.15;71.65
47761;BME280;33524;55.434;38.520;2023-03-05T08:28:25;97574.72;;;-1.64;72.61
47761;BME280;33524;55.434;38.520;2023-03-05T08:30:55;97578.59;;;-1.33;72.59
47761;BME280;33524;55.434;38.520;2023-03-05T08:33:25;97573.84;;;-1.26;72.05
47761;BME280;33524;55.434;38.520;2023-03-05T08:35:58;97573.56;;;-1.47;72.20
47761;BME280;33524;55.434;38.520;2023-03-05T08:38:28;97582.72;;;-1.30;72.20
47761;BME280;33524;55.434;38.520;2023-03-05T08:40:57;97582.94;;;-1.33;71.78
47761;BME280;33524;55.434;38.520;2023-03-05T08:43:27;97577.00;;;-1.47;71.90
47761;BME280;33524;55.434;38.520;2023-03-05T08:45:58;97587.81;;;-1.42;72.27
47761;BME280;33524;55.434;38.520;2023-03-05T08:48:29;97587.72;;;-1.53;72.87
47761;BME280;33524;55.434;38.520;2023-03-05T08:51:09;97581.31;;;-1.34;72.81
47761;BME280;33524;55.434;38.520;2023-03-05T08:53:40;97588.44;;;-1.64;72.24
47761;BME280;33524;55.434;38.520;2023-03-05T08:56:12;97593.91;;;-1.43;72.22
47761;BME280;33524;55.434;38.520;2023-03-05T08:58:43;97597.59;;;-2.11;73.94
47761;BME280;33524;55.434;38.520;2023-03-05T09:01:14;97594.84;;;-1.69;75.36
47761;BME280;33524;55.434;38.520;2023-03-05T09:03:44;97598.22;;;-1.43;73.80
47761;BME280;33524;55.434;38.520;2023-03-05T09:06:13;97592.06;;;-1.79;74.65
47761;BME280;33524;55.434;38.520;2023-03-05T09:08:44;97602.56;;;-1.44;75.42
47761;BME280;33524;55.434;38.520;2023-03-05T09:11:13;97603.38;;;-1.69;76.30
47761;BME280;33524;55.434;38.520;2023-03-05T09:13:43;97613.28;;;-1.50;75.88
47761;BME280;33524;55.434;38.520;2023-03-05T09:16:16;97608.31;;;-1.27;75.31
47761;BME280;33524;55.434;38.520;2023-03-05T09:18:46;97614.41;;;-1.41;75.18
47761;BME280;33524;55.434;38.520;2023-03-05T09:21:16;97611.84;;;-1.54;75.67
47761;BME280;33524;55.434;38.520;2023-03-05T09:23:48;97612.66;;;-1.79;75.84
47761;BME280;33524;55.434;38.520;2023-03-05T09:26:19;97614.50;;;-1.30;75.86
47761;BME280;33524;55.434;38.520;2023-03-05T09:28:48;97610.25;;;-1.18;75.75
47761;BME280;33524;55.434;38.520;2023-03-05T09:31:18;97617.69;;;-1.39;76.69
47761;BME280;33524;55.434;38.520;2023-03-05T09:33:48;97628.97;;;-1.53;77.61
47761;BME280;33524;55.434;38.520;2023-03-05T09:36:21;97633.25;;;-1.92;79.11
47761;BME280;33524;55.434;38.520;2023-03-05T09:38:52;97640.69;;;-1.87;80.48
47761;BME280;33524;55.434;38.520;2023-03-05T09:45:11;97635.84;;;-1.79;80.47
47761;BME280;33524;55.434;38.520;2023-03-05T09:47:49;97633.69;;;-1.72;80.51
47761;BME280;33524;55.434;38.520;2023-03-05T09:52:58;97646.06;;;-1.77;80.84
47761;BME280;33524;55.434;38.520;2023-03-05T09:55:35;97638.03;;;-1.60;80.37
47761;BME280;33524;55.434;38.520;2023-03-05T09:58:16;97638.25;;;-1.50;79.74
47761;BME280;33524;55.434;38.520;2023-03-05T10:00:48;97640.81;;;-1.63;79.91
47761;BME280;33524;55.434;38.520;2023-03-05T10:06:31;97646.28;;;-1.55;79.50
47761;BME280;33524;55.434;38.520;2023-03-05T10:09:14;97654.69;;;-1.78;80.39
47761;BME280;33524;55.434;38.520;2023-03-05T10:12:55;97659.44;;;-1.72;79.86
47761;BME280;33524;55.434;38.520;2023-03-05T10:14:40;97658.00;;;-1.76;80.10
47761;BME280;33524;55.434;38.520;2023-03-05T10:20:36;97661.53;;;-2.17;81.57
47761;BME280;33524;55.434;38.520;2023-03-05T10:23:24;97670.06;;;-1.90;81.15
47761;BME280;33524;55.434;38.520;2023-03-05T10:26:24;97666.50;;;-2.14;81.47
47761;BME280;33524;55.434;38.520;2023-03-05T10:29:33;97656.78;;;-1.84;81.25
47761;BME280;33524;55.434;38.520;2023-03-05T10:32:09;97671.03;;;-2.05;81.81
47761;BME280;33524;55.434;38.520;2023-03-05T10:34:51;97669.72;;;-1.98;81.56
47761;BME280;33524;55.434;38.520;2023-03-05T10:40:17;97677.31;;;-1.69;81.34
47761;BME280;33524;55.434;38.520;2023-03-05T10:45:52;97687.81;;;-2.12;82.07
47761;BME280;33524;55.434;38.520;2023-03-05T10:51:21;97696.88;;;-1.79;81.90
47761;BME280;33524;55.434;38.520;2023-03-05T10:53:58;97694.63;;;-1.58;81.09
47761;BME280;33524;55.434;38.520;2023-03-05T10:56:30;97704.84;;;-1.31;80.57
47761;BME280;33524;55.434;38.520;2023-03-05T10:59:01;97699.28;;;-1.12;80.44
47761;BME280;33524;55.434;38.520;2023-03-05T11:01:30;97705.78;;;-1.19;80.12
47761;BME280;33524;55.434;38.520;2023-03-05T11:04:04;97714.53;;;-1.48;80.74
47761;BME280;33524;55.434;38.520;2023-03-05T11:06:38;97705.88;;;-1.21;80.50
47761;BME280;33524;55.434;38.520;2023-03-05T11:15:02;97722.81;;;-1.30;81.58
47761;BME280;33524;55.434;38.520;2023-03-05T11:26:01;97736.34;;;-0.51;82.12
47761;BME280;33524;55.434;38.520;2023-03-05T11:28:37;97743.19;;;-0.75;83.59
47761;BME280;33524;55.434;38.520;2023-03-05T11:36:37;97747.16;;;0.15;80.51
47761;BME280;33524;55.434;38.520;2023-03-05T11:44:33;97752.97;;;0.30;81.21
47761;BME280;33524;55.434;38.520;2023-03-05T11:47:41;97761.06;;;0.26;81.35
47761;BME280;33524;55.434;38.520;2023-03-05T11:50:32;97767.06;;;0.26;81.81
47761;BME280;33524;55.434;38.520;2023-03-05T11:53:04;97770.13;;;-0.17;83.67
47761;BME280;33524;55.434;38.520;2023-03-05T11:55:45;97781.75;;;0.02;83.59
47761;BME280;33524;55.434;38.520;2023-03-05T11:59:41;97783.72;;;-0.39;85.52
47761;BME280;33524;55.434;38.520;2023-03-05T12:01:29;97783.44;;;-0.47;86.00
47761;BME280;33524;55.434;38.520;2023-03-05T12:03:59;97792.63;;;-0.56;87.12
47761;BME280;33524;55.434;38.520;2023-03-05T12:09:25;97806.56;;;-0.46;87.96
47761;BME280;33524;55.434;38.520;2023-03-05T12:12:26;97811.09;;;-0.36;87.78
47761;BME280;33524;55.434;38.520;2023-03-05T12:20:22;97832.56;;;-0.36;86.58
47761;BME280;33524;55.434;38.520;2023-03-05T12:22:56;97836.31;;;-0.40;87.22
47761;BME280;33524;55.434;38.520;2023-03-05T12:31:05;97856.84;;;-0.77;87.38
47761;BME280;33524;55.434;38.520;2023-03-05T12:33:50;97854.69;;;-0.96;87.89
47761;BME280;33524;55.434;38.520;2023-03-05T12:36:32;97859.09;;;-1.11;87.92
47761;BME280;33524;55.434;38.520;2023-03-05T12:40:27;97874.22;;;-1.32;88.47
47761;BME280;33524;55.434;38.520;2023-03-05T12:56:39;97897.28;;;-1.30;87.78
47761;BME280;33524;55.434;38.520;2023-03-05T12:58:34;97909.97;;;-1.13;86.36
47761;BME280;33524;55.434;38.520;2023-03-05T13:03:52;97915.56;;;-1.33;82.88
47761;BME280;33524;55.434;38.520;2023-03-05T13:06:29;97917.53;;;-1.24;82.69
47761;BME280;33524;55.434;38.520;2023-03-05T13:11:37;97916.31;;;-1.18;81.75
47761;BME280;33524;55.434;38.520;2023-03-05T13:16:57;97936.84;;;-0.77;79.24
47761;BME280;33524;55.434;38.520;2023-03-05T13:19:28;97941.72;;;-1.12;79.35
47761;BME280;33524;55.434;38.520;2023-03-05T13:22:03;97955.00;;;-1.18;79.22
47761;BME280;33524;55.434;38.520;2023-03-05T13:24:33;97946.62;;;-1.22;78.38
47761;BME280;33524;55.434;38.520;2023-03-05T13:27:18;97956.00;;;-1.07;77.96
47761;BME280;33524;55.434;38.520;2023-03-05T13:29:51;97965.81;;;-1.26;78.39
47761;BME280;33524;55.434;38.520;2023-03-05T13:32:25;97968.69;;;-1.31;78.41
47761;BME280;33524;55.434;38.520;2023-03-05T13:34:59;97968.19;;;-1.50;78.18
47761;BME280;33524;55.434;38.520;2023-03-05T13:37:30;97975.59;;;-1.31;nan
47761;BME280;33524;55.434;38.520;2023-03-05T13:40:14;97981.06;;;-1.36;79.22
47761;BME280;33524;55.434;38.520;2023-03-05T13:42:46;97983.59;;;-1.22;79.66
47761;BME280;33524;55.434;38.520;2023-03-05T13:48:00;97994.13;;;-1.39;81.32
47761;BME280;33524;55.434;38.520;2023-03-05T13:50:33;97997.16;;;-1.32;81.90
47761;BME280;33524;55.434;38.520;2023-03-05T13:53:24;98002.38;;;-1.61;82.33
47761;BME280;33524;55.434;38.520;2023-03-05T13:56:07;97999.66;;;-1.59;82.14
47761;BME280;33524;55.434;38.520;2023-03-05T13:58:50;98005.34;;;-1.26;82.41
47761;BME280;33524;55.434;38.520;2023-03-05T14:01:44;98007.72;;;-1.23;81.49
47761;BME280;33524;55.434;38.520;2023-03-05T14:04:21;98019.44;;;-1.31;81.57
47761;BME280;33524;55.434;38.520;2023-03-05T14:07:02;98022.13;;;-1.47;81.38
47761;BME280;33524;55.434;38.520;2023-03-05T14:12:24;98028.09;;;-1.32;81.18
47761;BME280;33524;55.434;38.520;2023-03-05T14:15:00;98029.03;;;-1.48;79.92
47761;BME280;33524;55.434;38.520;2023-03-05T14:17:40;98047.09;;;-1.62;80.24
47761;BME280;33524;55.434;38.520;2023-03-05T14:20:27;98029.63;;;-1.71;79.42
47761;BME280;33524;55.434;38.520;2023-03-05T14:23:00;98051.06;;;-1.56;78.62
47761;BME280;33524;55.434;38.520;2023-03-05T14:25:35;98050.47;;;-1.47;79.16
47761;BME280;33524;55.434;38.520;2023-03-05T14:28:24;98058.50;;;-1.52;79.77
47761;BME280;33524;55.434;38.520;2023-03-05T14:30:57;98062.75;;;-1.51;79.69
47761;BME280;33524;55.434;38.520;2023-03-05T14:33:29;98065.41;;;-1.52;79.19
47761;BME280;33524;55.434;38.520;2023-03-05T14:36:01;98075.63;;;-1.65;79.70
47761;BME280;33524;55.434;38.520;2023-03-05T14:38:32;98074.16;;;-1.69;79.97
47761;BME280;33524;55.434;38.520;2023-03-05T14:41:52;98067.25;;;-1.69;79.42
47761;BME280;33524;55.434;38.520;2023-03-05T14:44:13;98085.16;;;-1.96;79.24
47761;BME280;33524;55.434;38.520;2023-03-05T14:46:48;98086.25;;;-2.00;79.77
47761;BME280;33524;55.434;38.520;2023-03-05T14:49:18;98085.53;;;-2.02;79.80
47761;BME280;33524;55.434;38.520;2023-03-05T14:51:48;98080.41;;;-1.88;80.21
47761;BME280;33524;55.434;38.520;2023-03-05T14:54:20;98089.78;;;-1.72;80.58
47761;BME280;33524;55.434;38.520;2023-03-05T14:56:51;98104.69;;;-1.92;79.89
47761;BME280;33524;55.434;38.520;2023-03-05T14:59:21;98095.53;;;-2.12;80.19